Time;durP1;ratioP1;P1;durP2;ratioP2;P2;SDS_P1;SDS_P2;PMS_P1;PMS_P2;Temp;Humidity;BMP_temperature;BMP_pressure;BME280_temperature;BME280_humidity;BME280_pressure;Samples;Min_cycle;Max_cycle;Signal;HPM_P1;HPM_P2
2024/01/05 00:00:03;;;;;;;8.20;2.80;;;7.90;69.40;6.40;95533.00;;;;4981203;28;20302;-86
2024/01/05 00:02:30;;;;;;;2.63;2.43;;;7.90;69.40;6.30;95523.00;;;;4977550;28;20266;-86
2024/01/05 00:04:57;;;;;;;13.60;2.90;;;7.80;69.30;6.30;95515.00;;;;4987456;28;20289;-86
2024/01/05 00:07:24;;;;;;;10.13;2.67;;;7.80;69.40;6.30;95507.00;;;;4985883;28;20637;-85
2024/01/05 00:09:52;;;;;;;5.60;2.60;;;7.80;69.40;6.20;95511.00;;;;4974208;28;20223;-84
2024/01/05 00:12:19;;;;;;;12.57;3.13;;;7.80;69.40;6.20;95504.00;;;;4989735;28;20230;-86
2024/01/05 00:14:46;;;;;;;5.53;2.70;;;7.70;69.50;6.20;95502.00;;;;4981816;28;20210;-85
2024/01/05 00:17:14;;;;;;;15.83;2.63;;;7.70;69.60;6.20;95504.00;;;;4986876;28;20701;-85
2024/01/05 00:19:42;;;;;;;16.33;3.00;;;7.70;69.60;6.20;95503.00;;;;4989524;28;20318;-84
2024/01/05 00:22:09;;;;;;;7.13;2.50;;;7.70;69.80;6.20;95494.00;;;;4985989;28;20285;-85
2024/01/05 00:24:37;;;;;;;4.97;2.30;;;7.70;69.90;6.20;95497.00;;;;4986046;28;20241;-85
2024/01/05 00:27:05;;;;;;;5.67;3.07;;;7.70;69.90;6.20;95503.00;;;;4989014;28;20286;-84
2024/01/05 00:29:32;;;;;;;2.40;2.20;;;7.70;69.90;6.20;95499.00;;;;4989545;28;20227;-85
2024/01/05 00:31:59;;;;;;;4.87;2.30;;;7.70;69.80;6.20;95495.00;;;;4986744;28;20218;-85
2024/01/05 00:34:28;;;;;;;3.73;1.90;;;7.60;69.70;6.10;95488.00;;;;4988952;28;20313;-84
2024/01/05 00:36:55;;;;;;;7.63;2.20;;;7.70;70.00;6.20;95494.00;;;;4986647;28;20732;-86
2024/01/05 00:39:22;;;;;;;6.77;2.13;;;7.60;70.20;6.20;95487.00;;;;4978413;28;20298;-86
2024/01/05 00:41:49;;;;;;;3.37;2.13;;;7.60;70.50;6.20;95491.00;;;;4983817;28;20206;-85
2024/01/05 00:44:16;;;;;;;9.67;2.33;;;7.60;71.40;6.20;95497.00;;;;4987751;28;20752;-86
2024/01/05 00:46:43;;;;;;;2.30;2.10;;;7.70;70.80;6.20;95483.00;;;;4984670;28;20632;-85
2024/01/05 00:49:10;;;;;;;2.07;1.80;;;7.70;70.80;6.20;95490.00;;;;4990886;28;20277;-83
2024/01/05 00:51:39;;;;;;;2.10;2.00;;;7.70;70.60;6.20;95491.00;;;;4992674;28;20230;-86
2024/01/05 00:54:06;;;;;;;9.10;2.30;;;7.70;71.20;6.30;95490.00;;;;4991974;28;20242;-86
2024/01/05 00:56:33;;;;;;;5.20;2.50;;;7.70;70.40;6.30;95481.00;;;;4993727;28;20237;-87
2024/01/05 00:59:00;;;;;;;3.30;1.87;;;7.70;70.40;6.30;95475.00;;;;4996482;28;20317;-86
2024/01/05 01:01:27;;;;;;;2.10;1.83;;;7.70;70.30;6.30;95477.00;;;;4993892;28;20206;-87
2024/01/05 01:03:54;;;;;;;4.43;1.73;;;7.70;70.40;6.30;95479.00;;;;4995374;28;20277;-84
2024/01/05 01:06:21;;;;;;;2.50;1.97;;;7.80;70.40;6.30;95472.00;;;;4997221;28;20302;-86
2024/01/05 01:08:50;;;;;;;8.00;2.13;;;7.80;70.40;6.30;95471.00;;;;4995945;28;20286;-85
2024/01/05 01:11:18;;;;;;;4.50;1.97;;;7.70;70.30;6.30;95468.00;;;;4983047;28;20237;-85
2024/01/05 01:13:46;;;;;;;8.67;2.40;;;7.70;70.30;6.30;95475.00;;;;4993004;28;20203;-85
2024/01/05 01:16:13;;;;;;;3.90;1.83;;;7.70;70.20;6.30;95468.00;;;;4989967;28;20736;-86
2024/01/05 01:18:41;;;;;;;3.50;1.80;;;7.80;70.30;6.30;95468.00;;;;4992102;28;20226;-86
2024/01/05 01:21:08;;;;;;;2.80;1.90;;;7.80;70.30;6.30;95463.00;;;;4990916;28;20580;-83
2024/01/05 01:23:35;;;;;;;2.87;1.67;;;7.70;70.30;6.30;95453.00;;;;4965451;28;20216;-85
2024/01/05 01:26:04;;;;;;;1.70;1.60;;;7.70;70.30;6.30;95458.00;;;;4986948;28;20219;-85
2024/01/05 01:28:32;;;;;;;2.37;1.50;;;7.70;70.40;6.30;95448.00;;;;4981961;28;20586;-84
2024/01/05 01:30:59;;;;;;;6.93;1.80;;;7.80;70.60;6.30;95441.00;;;;4988473;28;20235;-83
2024/01/05 01:33:26;;;;;;;2.27;1.80;;;7.70;70.50;6.20;95434.00;;;;4992558;28;20694;-84
2024/01/05 01:35:53;;;;;;;1.77;1.67;;;7.70;70.50;6.20;95429.00;;;;4988548;28;20273;-84
2024/01/05 01:38:20;;;;;;;10.60;2.27;;;7.70;70.50;6.20;95434.00;;;;4989655;28;20227;-85
2024/01/05 01:40:48;;;;;;;2.73;1.57;;;7.70;70.50;6.20;95437.00;;;;4982169;28;20306;-84
2024/01/05 01:43:24;;;;;;;4.97;1.90;;;7.70;70.50;6.10;95428.00;;;;4981105;28;20230;-84
2024/01/05 01:45:53;;;;;;;2.83;1.60;;;7.70;70.40;6.10;95419.00;;;;4986710;28;20214;-80
2024/01/05 01:48:21;;;;;;;7.50;1.90;;;7.70;70.30;6.10;95422.00;;;;4990402;28;20297;-86
2024/01/05 01:50:49;;;;;;;6.93;1.90;;;7.70;70.20;6.20;95415.00;;;;4982134;28;20792;-84
2024/01/05 01:53:21;;;;;;;2.30;2.03;;;7.70;70.10;6.10;95411.00;;;;4977257;28;20199;-84
2024/01/05 01:55:49;;;;;;;6.33;1.70;;;7.70;70.20;6.10;95420.00;;;;4981220;28;20207;-84
2024/01/05 01:58:22;;;;;;;1.70;1.60;;;7.60;70.20;6.10;95419.00;;;;4969641;28;20261;-85
2024/01/05 02:00:52;;;;;;;11.30;2.20;;;7.60;70.20;6.10;95417.00;;;;4981407;28;20302;-83
2024/01/05 02:03:20;;;;;;;2.13;1.93;;;7.60;70.00;6.10;95423.00;;;;4972235;28;20230;-86
2024/01/05 02:05:48;;;;;;;4.93;1.90;;;7.60;70.00;6.00;95415.00;;;;4984638;28;20207;-85
2024/01/05 02:08:16;;;;;;;5.73;1.93;;;7.60;70.10;6.00;95409.00;;;;4981025;28;20213;-85
2024/01/05 02:10:43;;;;;;;5.17;1.87;;;7.60;70.20;6.00;95401.00;;;;4975201;28;20231;-84
2024/01/05 02:13:11;;;;;;;8.33;2.40;;;7.60;70.20;6.00;95390.00;;;;4987614;28;20673;-85
2024/01/05 02:15:39;;;;;;;5.67;1.73;;;7.50;70.00;6.00;95394.00;;;;4985534;28;20587;-85
2024/01/05 02:18:11;;;;;;;4.97;1.60;;;7.50;70.10;6.00;95393.00;;;;4990145;28;20274;-84
2024/01/05 02:20:38;;;;;;;13.23;2.27;;;7.50;70.20;6.00;95398.00;;;;4991700;28;20250;-86
2024/01/05 02:23:17;;;;;;;6.87;1.90;;;7.40;70.10;5.90;95389.00;;;;4975913;28;20235;-86
2024/01/05 02:25:45;;;;;;;2.90;1.50;;;7.50;70.30;5.90;95398.00;;;;4984261;28;20286;-85
2024/01/05 02:28:12;;;;;;;1.63;1.50;;;7.50;70.20;5.90;95385.00;;;;4983928;28;20274;-86
2024/01/05 02:30:39;;;;;;;10.50;2.20;;;7.40;70.10;5.90;95378.00;;;;4991916;28;20638;-85
2024/01/05 02:33:07;;;;;;;1.80;1.57;;;7.40;70.10;5.90;95381.00;;;;4990962;28;20204;-84
2024/01/05 02:35:34;;;;;;;6.30;2.27;;;7.40;70.10;5.90;95376.00;;;;4991510;28;20210;-85
2024/01/05 02:38:02;;;;;;;11.47;2.40;;;7.40;70.00;5.90;95364.00;;;;4989809;28;20313;-85
2024/01/05 02:40:29;;;;;;;8.73;2.30;;;7.40;70.10;5.90;95346.00;;;;4983118;28;20221;-86
2024/01/05 02:42:57;;;;;;;11.13;2.47;;;7.40;70.20;5.90;95346.00;;;;4990332;28;20665;-84
2024/01/05 02:45:25;;;;;;;14.73;2.17;;;7.40;70.30;5.90;95350.00;;;;4990106;28;20542;-84
2024/01/05 02:47:54;;;;;;;4.10;1.60;;;7.40;71.10;5.90;95346.00;;;;4985819;28;20244;-84
2024/01/05 02:50:22;;;;;;;1.67;1.53;;;7.40;70.60;5.90;95347.00;;;;4979967;28;20219;-84
2024/01/05 02:52:49;;;;;;;6.07;2.00;;;7.40;70.60;5.90;95333.00;;;;4984998;28;20297;-84
2024/01/05 02:55:16;;;;;;;5.70;1.60;;;7.40;70.60;5.90;95336.00;;;;4978359;28;20404;-82
2024/01/05 02:57:43;;;;;;;1.73;1.20;;;7.40;70.70;6.00;95328.00;;;;4989377;28;20317;-83
2024/01/05 03:00:13;;;;;;;1.80;1.50;;;7.50;70.80;6.00;95318.00;;;;4989213;28;20638;-85
2024/01/05 03:02:40;;;;;;;5.83;2.03;;;7.40;70.70;6.00;95318.00;;;;4985243;28;20250;-83
2024/01/05 03:05:08;;;;;;;1.70;1.50;;;7.50;70.70;6.00;95312.00;;;;4988032;28;20396;-86
2024/01/05 03:07:35;;;;;;;9.10;1.70;;;7.50;70.80;6.00;95306.00;;;;4989377;28;20321;-84
2024/01/05 03:10:02;;;;;;;2.10;1.47;;;7.50;70.70;6.00;95294.00;;;;4983528;28;20281;-85
2024/01/05 03:12:29;;;;;;;1.70;1.60;;;7.50;70.70;6.00;95293.00;;;;4985930;28;20290;-85
2024/01/05 03:14:57;;;;;;;2.77;1.50;;;7.50;70.60;6.10;95295.00;;;;4984263;28;20226;-85
2024/01/05 03:17:25;;;;;;;2.13;1.43;;;7.50;70.50;6.10;95298.00;;;;4984364;28;20242;-84
2024/01/05 03:19:53;;;;;;;7.70;2.13;;;7.50;70.50;6.10;95290.00;;;;4974712;28;20226;-84
2024/01/05 03:22:20;;;;;;;10.67;1.90;;;7.60;70.50;6.10;95287.00;;;;4979920;28;20650;-85
2024/01/05 03:24:47;;;;;;;4.30;1.30;;;7.60;70.50;6.10;95293.00;;;;4980491;28;20237;-85
2024/01/05 03:27:14;;;;;;;5.77;1.87;;;7.50;70.50;6.10;95286.00;;;;4983734;28;20290;-84
2024/01/05 03:29:42;;;;;;;2.47;1.50;;;7.60;70.90;6.10;95275.00;;;;4990768;28;20223;-85
2024/01/05 03:32:09;;;;;;;7.17;1.50;;;7.60;70.40;6.10;95273.00;;;;4990164;28;20290;-85
2024/01/05 03:34:38;;;;;;;1.30;1.20;;;7.50;70.30;6.10;95267.00;;;;4991706;28;20210;-84
2024/01/05 03:37:06;;;;;;;2.77;1.47;;;7.60;71.10;6.10;95260.00;;;;4987545;28;20205;-85
2024/01/05 03:39:33;;;;;;;2.40;1.47;;;7.50;70.40;6.10;95244.00;;;;4976348;28;20234;-84
2024/01/05 03:42:00;;;;;;;1.30;1.13;;;7.50;70.40;6.00;95240.00;;;;4989326;28;20296;-84
2024/01/05 03:44:27;;;;;;;7.07;1.87;;;7.50;70.30;6.00;95237.00;;;;4988380;28;20305;-82
2024/01/05 03:46:54;;;;;;;1.93;1.10;;;7.50;70.40;6.00;95245.00;;;;4974349;28;20650;-84
2024/01/05 03:49:21;;;;;;;2.00;1.40;;;7.50;70.40;6.00;95243.00;;;;4990936;28;20242;-82
2024/01/05 03:51:50;;;;;;;2.20;1.00;;;7.50;70.30;6.00;95237.00;;;;4976177;28;20289;-85
2024/01/05 03:54:17;;;;;;;2.03;1.10;;;7.50;70.40;6.00;95238.00;;;;4990529;28;20290;-84
2024/01/05 03:56:46;;;;;;;3.00;1.40;;;7.50;70.40;6.00;95234.00;;;;4989400;28;20209;-84
2024/01/05 03:59:14;;;;;;;2.83;1.10;;;7.50;70.40;6.00;95232.00;;;;4981576;28;20589;-85
2024/01/05 04:01:45;;;;;;;1.70;0.80;;;7.50;70.30;6.00;95231.00;;;;4989516;28;20198;-83
2024/01/05 04:04:12;;;;;;;1.83;1.20;;;7.50;70.50;6.00;95222.00;;;;4969443;28;20278;-85
2024/01/05 04:06:39;;;;;;;1.10;1.00;;;7.50;70.50;6.00;95224.00;;;;4984561;28;20282;-85
2024/01/05 04:09:10;;;;;;;1.87;1.00;;;7.50;70.60;6.00;95231.00;;;;4986766;28;20314;-85
2024/01/05 04:11:37;;;;;;;1.10;0.97;;;7.50;70.60;6.00;95230.00;;;;4985697;28;20199;-85
2024/01/05 04:14:05;;;;;;;1.73;0.90;;;7.50;70.40;6.00;95229.00;;;;4986222;28;20199;-85
2024/01/05 04:16:33;;;;;;;4.87;1.13;;;7.50;70.40;6.00;95220.00;;;;4977244;28;20234;-85
2024/01/05 04:19:00;;;;;;;10.57;0.90;;;7.50;70.50;6.00;95211.00;;;;4987435;28;20230;-84
2024/01/05 04:21:27;;;;;;;14.77;1.20;;;7.50;70.50;6.00;95197.00;;;;4979273;28;20269;-85
2024/01/05 04:23:56;;;;;;;3.93;1.03;;;7.50;70.50;6.00;95204.00;;;;4988146;28;20233;-86
2024/01/05 04:26:24;;;;;;;2.00;0.90;;;7.50;70.60;6.00;95198.00;;;;4991042;28;20668;-86
2024/01/05 04:28:52;;;;;;;6.10;1.30;;;7.50;70.50;6.00;95203.00;;;;4988477;28;20832;-84
2024/01/05 04:31:19;;;;;;;5.80;0.87;;;7.50;70.50;6.00;95201.00;;;;4990284;28;20281;-83
2024/01/05 04:33:47;;;;;;;2.07;1.00;;;7.50;70.50;6.00;95193.00;;;;4990841;28;20306;-86
2024/01/05 04:36:15;;;;;;;11.33;1.47;;;7.50;70.50;6.00;95187.00;;;;4982701;28;20281;-86
2024/01/05 04:38:43;;;;;;;2.97;0.90;;;7.50;70.50;6.00;95181.00;;;;4993645;28;20222;-84
2024/01/05 04:41:11;;;;;;;4.60;1.00;;;7.50;70.50;6.00;95178.00;;;;4994905;28;20234;-85
2024/01/05 04:43:39;;;;;;;2.87;1.00;;;7.50;70.50;6.00;95173.00;;;;4995368;28;20230;-85
2024/01/05 04:46:08;;;;;;;8.83;1.40;;;7.50;70.50;6.00;95167.00;;;;4995640;28;20287;-85
2024/01/05 04:48:35;;;;;;;6.90;1.23;;;7.50;70.50;6.00;95164.00;;;;4991681;28;20307;-85
2024/01/05 04:51:03;;;;;;;0.80;0.80;;;7.50;70.70;6.00;95176.00;;;;4994518;28;20259;-84
2024/01/05 04:53:30;;;;;;;6.10;1.10;;;7.60;70.80;6.10;95175.00;;;;4987827;28;20199;-85
2024/01/05 04:55:57;;;;;;;12.17;1.50;;;7.50;70.70;6.10;95168.00;;;;4983515;28;20227;-83
2024/01/05 04:58:25;;;;;;;8.63;1.03;;;7.60;70.80;6.10;95170.00;;;;4998745;28;20545;-85
2024/01/05 05:00:54;;;;;;;6.00;1.00;;;7.60;70.90;6.10;95176.00;;;;4997390;28;20230;-85
2024/01/05 05:03:23;;;;;;;3.23;0.97;;;7.60;70.90;6.20;95185.00;;;;4991085;28;20199;-85
2024/01/05 05:05:51;;;;;;;7.97;1.10;;;7.60;70.90;6.20;95183.00;;;;4996380;28;20230;-85
2024/01/05 05:08:18;;;;;;;8.13;1.23;;;7.60;70.80;6.20;95185.00;;;;4992754;28;20202;-82
2024/01/05 05:10:45;;;;;;;10.47;1.30;;;7.70;70.90;6.20;95191.00;;;;4977896;28;20224;-86
2024/01/05 05:13:12;;;;;;;13.33;1.47;;;7.70;70.90;6.20;95186.00;;;;4994180;28;20289;-85
2024/01/05 05:15:39;;;;;;;10.40;1.10;;;7.70;70.80;6.20;95187.00;;;;4993540;28;20230;-85
2024/01/05 05:18:08;;;;;;;2.37;0.90;;;7.70;70.70;6.20;95198.00;;;;4993691;28;20210;-85
2024/01/05 05:20:35;;;;;;;1.63;0.90;;;7.70;70.70;6.20;95218.00;;;;4995517;28;20317;-83
2024/01/05 05:23:02;;;;;;;1.70;0.80;;;7.80;70.60;6.20;95213.00;;;;4987528;28;20207;-84
2024/01/05 05:25:29;;;;;;;4.70;1.07;;;7.70;70.40;6.20;95209.00;;;;4988954;28;20275;-85
2024/01/05 05:27:56;;;;;;;6.90;1.47;;;7.70;70.30;6.20;95222.00;;;;4991930;28;20293;-82
2024/01/05 05:30:24;;;;;;;11.20;1.17;;;7.80;70.50;6.20;95224.00;;;;4990934;28;20305;-85
2024/01/05 05:32:51;;;;;;;5.40;0.87;;;7.70;70.40;6.20;95222.00;;;;4989595;28;20249;-84
2024/01/05 05:35:19;;;;;;;1.00;0.90;;;7.70;70.40;6.20;95220.00;;;;4992687;28;20249;-85
2024/01/05 05:37:47;;;;;;;6.87;1.40;;;7.70;70.30;6.20;95214.00;;;;4987892;28;20230;-84
2024/01/05 05:40:14;;;;;;;2.00;1.30;;;7.70;70.40;6.20;95219.00;;;;4984299;28;20305;-85
2024/01/05 05:42:41;;;;;;;5.90;1.47;;;7.70;70.40;6.20;95202.00;;;;4989582;28;20314;-84
2024/01/05 05:45:10;;;;;;;1.87;1.00;;;7.70;70.40;6.20;95201.00;;;;4987951;28;20605;-85
2024/01/05 05:47:37;;;;;;;1.60;0.90;;;7.70;70.40;6.20;95208.00;;;;4987812;28;20696;-83
2024/01/05 05:50:06;;;;;;;2.87;1.00;;;7.70;70.20;6.20;95194.00;;;;4989352;28;20220;-83
2024/01/05 05:52:35;;;;;;;2.20;1.00;;;7.70;70.10;6.10;95197.00;;;;4979216;28;20199;-85
2024/01/05 05:55:03;;;;;;;3.43;1.27;;;7.70;70.00;6.10;95187.00;;;;4987922;28;20210;-85
2024/01/05 05:57:31;;;;;;;2.10;1.00;;;7.60;70.00;6.10;95189.00;;;;4986893;28;20242;-85
2024/01/05 05:59:58;;;;;;;3.13;1.10;;;7.60;70.00;6.10;95197.00;;;;4983855;28;20608;-86
2024/01/05 06:02:26;;;;;;;14.17;1.90;;;7.60;70.00;6.10;95197.00;;;;4988531;28;20191;-86
2024/01/05 06:04:53;;;;;;;4.53;1.00;;;7.60;70.20;6.10;95202.00;;;;4989024;28;20214;-85
2024/01/05 06:07:20;;;;;;;7.80;1.70;;;7.60;70.30;6.10;95178.00;;;;4984691;28;20191;-85
2024/01/05 06:09:49;;;;;;;2.00;0.80;;;7.60;70.20;6.00;95174.00;;;;4989124;28;20656;-84
2024/01/05 06:12:17;;;;;;;1.17;0.90;;;7.60;70.20;6.00;95171.00;;;;4973920;28;20286;-86
2024/01/05 06:14:45;;;;;;;2.40;1.00;;;7.50;70.00;6.00;95162.00;;;;4988385;28;20203;-86
2024/01/05 06:17:12;;;;;;;2.37;0.80;;;7.50;70.00;6.00;95165.00;;;;4981233;28;20249;-86
2024/01/05 06:19:39;;;;;;;3.03;1.00;;;7.50;69.90;5.90;95171.00;;;;4991736;28;20309;-85
2024/01/05 06:22:06;;;;;;;2.93;0.93;;;7.50;69.90;5.90;95174.00;;;;4988372;28;20306;-85
2024/01/05 06:24:33;;;;;;;1.00;0.87;;;7.50;69.90;5.90;95180.00;;;;4985885;28;20226;-82
2024/01/05 06:27:02;;;;;;;1.43;0.80;;;7.40;69.90;5.90;95181.00;;;;4990300;28;20195;-85
2024/01/05 06:29:29;;;;;;;2.77;0.97;;;7.40;69.80;5.80;95176.00;;;;4982706;28;20302;-84
2024/01/05 06:31:56;;;;;;;1.37;1.20;;;7.40;69.90;5.80;95179.00;;;;4989352;28;20311;-84
2024/01/05 06:34:23;;;;;;;1.57;1.00;;;7.40;70.00;5.80;95182.00;;;;4989894;28;20302;-85
2024/01/05 06:36:50;;;;;;;1.33;0.90;;;7.40;70.00;5.80;95184.00;;;;4983169;28;20289;-84
2024/01/05 06:39:17;;;;;;;3.07;0.90;;;7.30;70.10;5.80;95187.00;;;;4981841;28;20341;-84
2024/01/05 06:41:44;;;;;;;3.37;1.30;;;7.30;70.10;5.80;95202.00;;;;4988623;28;20294;-84
2024/01/05 06:44:12;;;;;;;1.20;1.03;;;7.30;70.10;5.80;95204.00;;;;4986575;28;20206;-84
2024/01/05 06:46:40;;;;;;;1.23;1.13;;;7.30;70.00;5.80;95216.00;;;;4978290;28;20298;-84
2024/01/05 06:49:07;;;;;;;1.30;1.20;;;7.30;70.00;5.80;95211.00;;;;4984838;28;20669;-85
2024/01/05 06:51:37;;;;;;;2.37;1.23;;;7.30;70.10;5.80;95206.00;;;;4980212;28;20286;-84
2024/01/05 06:54:05;;;;;;;1.57;1.30;;;7.30;70.30;5.80;95197.00;;;;4984517;28;20313;-86
2024/01/05 06:56:33;;;;;;;5.20;1.80;;;7.20;70.20;5.80;95201.00;;;;4986297;28;20310;-83
2024/01/05 06:59:00;;;;;;;9.03;1.77;;;7.30;70.30;5.70;95207.00;;;;4987565;28;20240;-85
2024/01/05 07:01:29;;;;;;;10.03;1.70;;;7.30;70.20;5.80;95206.00;;;;4989258;28;20298;-85
2024/01/05 07:03:56;;;;;;;1.70;1.60;;;7.30;70.30;5.80;95206.00;;;;4987352;28;20272;-85
2024/01/05 07:06:23;;;;;;;12.20;2.53;;;7.30;70.50;5.80;95198.00;;;;4984654;28;20301;-85
2024/01/05 07:08:50;;;;;;;6.03;1.80;;;7.30;70.50;5.80;95201.00;;;;4989766;28;20322;-82
2024/01/05 07:11:21;;;;;;;2.70;1.80;;;7.30;70.60;5.80;95208.00;;;;4986102;28;20286;-86
2024/01/05 07:13:49;;;;;;;2.63;1.47;;;7.30;70.70;5.80;95223.00;;;;4966484;28;20655;-84
2024/01/05 07:16:17;;;;;;;6.27;2.10;;;7.30;70.60;5.80;95225.00;;;;4974348;28;20696;-86
2024/01/05 07:18:46;;;;;;;3.73;1.90;;;7.30;70.60;5.90;95231.00;;;;4976317;28;20295;-83
2024/01/05 07:21:14;;;;;;;9.37;2.50;;;7.30;70.70;5.90;95238.00;;;;4976702;28;20201;-85
2024/01/05 07:23:41;;;;;;;3.53;3.23;;;7.40;70.90;5.90;95241.00;;;;4983597;28;20199;-85
2024/01/05 07:26:08;;;;;;;2.70;2.50;;;7.40;70.90;5.90;95261.00;;;;4988821;28;20302;-86
2024/01/05 07:28:35;;;;;;;3.20;2.90;;;7.40;70.90;5.90;95260.00;;;;4988331;28;20297;-86
2024/01/05 07:31:05;;;;;;;3.40;3.07;;;7.40;70.80;5.90;95267.00;;;;4981022;28;20584;-85
2024/01/05 07:33:32;;;;;;;6.90;3.30;;;7.40;70.90;6.00;95280.00;;;;4987472;28;20278;-85
2024/01/05 07:36:05;;;;;;;4.20;3.67;;;7.50;71.10;6.00;95281.00;;;;4987322;28;20202;-85
2024/01/05 07:38:34;;;;;;;3.90;3.50;;;7.50;71.20;6.10;95288.00;;;;4983709;28;20577;-84
2024/01/05 07:41:01;;;;;;;6.13;3.20;;;7.50;71.30;6.10;95270.00;;;;4984580;28;20218;-85
2024/01/05 07:43:29;;;;;;;5.43;2.77;;;7.60;72.10;6.20;95272.00;;;;4978276;28;20278;-84
2024/01/05 07:45:56;;;;;;;4.13;2.87;;;7.60;71.40;6.20;95266.00;;;;4976553;28;20199;-85
2024/01/05 07:48:23;;;;;;;2.70;2.50;;;7.60;72.20;6.30;95264.00;;;;4977855;28;20561;-86
2024/01/05 07:50:51;;;;;;;2.30;1.93;;;7.70;71.50;6.30;95237.00;;;;4988574;28;20231;-85
2024/01/05 07:53:19;;;;;;;2.90;1.60;;;7.70;71.40;6.40;95239.00;;;;4980604;28;20198;-85
2024/01/05 07:55:46;;;;;;;2.67;1.77;;;7.80;71.30;6.40;95247.00;;;;4983152;28;20703;-85
2024/01/05 07:58:14;;;;;;;4.27;1.97;;;7.80;71.30;6.40;95240.00;;;;4989471;28;20210;-85
2024/01/05 08:00:41;;;;;;;4.10;1.37;;;7.90;72.00;6.50;95232.00;;;;4987241;28;20222;-84
2024/01/05 08:03:09;;;;;;;4.33;2.00;;;7.90;71.40;6.50;95221.00;;;;4975969;28;20291;-84
2024/01/05 08:05:37;;;;;;;2.17;1.73;;;7.90;71.40;6.50;95221.00;;;;4985807;28;20285;-84
2024/01/05 08:08:05;;;;;;;7.77;2.30;;;8.00;71.40;6.60;95229.00;;;;4979431;28;20258;-86
2024/01/05 08:10:34;;;;;;;1.50;1.40;;;8.00;71.20;6.60;95222.00;;;;4989297;28;20317;-85
2024/01/05 08:13:01;;;;;;;1.70;1.60;;;8.00;71.10;6.60;95214.00;;;;4985744;28;20231;-84
2024/01/05 08:15:28;;;;;;;10.47;2.30;;;8.10;71.10;6.70;95219.00;;;;4990791;28;20674;-83
2024/01/05 08:17:55;;;;;;;1.80;1.70;;;8.10;71.20;6.70;95216.00;;;;4984836;28;20250;-85
2024/01/05 08:20:23;;;;;;;2.17;1.60;;;8.20;71.30;6.70;95215.00;;;;4987724;28;20223;-83
2024/01/05 08:22:50;;;;;;;2.63;1.60;;;8.20;71.10;6.70;95214.00;;;;4973695;28;20254;-85
2024/01/05 08:25:18;;;;;;;6.37;2.10;;;8.20;70.80;6.80;95219.00;;;;4987117;28;20254;-85
2024/01/05 08:27:46;;;;;;;6.17;1.80;;;8.20;70.80;6.80;95217.00;;;;4985529;28;20282;-85
2024/01/05 08:30:14;;;;;;;5.73;1.77;;;8.30;71.00;6.90;95216.00;;;;4985997;28;20305;-85
2024/01/05 08:32:43;;;;;;;1.70;1.60;;;8.30;71.00;6.90;95226.00;;;;4980795;28;20297;-86
2024/01/05 08:35:10;;;;;;;7.47;1.87;;;8.30;70.90;6.90;95223.00;;;;4986797;28;20298;-88
2024/01/05 08:37:37;;;;;;;1.50;1.20;;;8.40;70.80;6.90;95230.00;;;;4981436;28;20257;-87
2024/01/05 08:40:06;;;;;;;1.40;1.30;;;8.40;70.80;7.00;95227.00;;;;4973700;28;20668;-86
2024/01/05 08:42:34;;;;;;;3.13;1.47;;;8.40;70.50;7.00;95235.00;;;;4983076;28;20257;-87
2024/01/05 08:45:02;;;;;;;7.30;1.60;;;8.40;70.40;7.00;95239.00;;;;4985281;28;20252;-88
2024/01/05 08:47:29;;;;;;;11.40;2.17;;;8.50;70.50;7.00;95254.00;;;;4972925;28;20674;-87
2024/01/05 08:49:56;;;;;;;5.90;1.90;;;8.60;70.50;7.10;95248.00;;;;4977683;28;20261;-87
2024/01/05 08:52:27;;;;;;;5.30;1.67;;;8.60;70.50;7.20;95250.00;;;;4983234;28;20211;-88
2024/01/05 08:54:54;;;;;;;7.53;2.10;;;9.00;70.70;7.20;95267.00;;;;4967040;28;20292;-86
2024/01/05 08:57:21;;;;;;;3.00;2.50;;;8.70;70.40;7.30;95259.00;;;;4978729;28;20206;-88
2024/01/05 08:59:48;;;;;;;7.33;2.50;;;8.90;70.30;7.40;95282.00;;;;4980426;28;20231;-88
2024/01/05 09:02:17;;;;;;;3.27;2.60;;;8.80;70.20;7.40;95267.00;;;;4973309;28;20290;-87
2024/01/05 09:04:44;;;;;;;2.43;2.23;;;8.80;70.20;7.40;95272.00;;;;4974668;28;20633;-87
2024/01/05 09:07:12;;;;;;;16.37;2.93;;;8.90;70.20;7.50;95271.00;;;;4988921;28;20198;-87
2024/01/05 09:09:40;;;;;;;5.07;2.53;;;9.00;70.00;7.60;95263.00;;;;4992393;28;20237;-87
2024/01/05 09:12:09;;;;;;;2.37;1.97;;;9.00;70.00;7.60;95258.00;;;;4984359;28;20234;-86
2024/01/05 09:14:36;;;;;;;8.93;2.40;;;9.00;69.90;7.70;95263.00;;;;4983802;28;20673;-87
2024/01/05 09:17:04;;;;;;;5.50;2.17;;;9.10;69.70;7.70;95267.00;;;;4984842;28;20295;-85
2024/01/05 09:19:35;;;;;;;10.10;2.33;;;9.20;69.90;7.80;95270.00;;;;4978618;28;20298;-87
2024/01/05 09:22:03;;;;;;;4.43;2.20;;;9.20;69.90;7.80;95268.00;;;;4986946;28;20628;-87
2024/01/05 09:24:30;;;;;;;8.83;2.43;;;9.30;69.80;7.90;95256.00;;;;4986769;28;20293;-87
2024/01/05 09:26:58;;;;;;;14.17;2.73;;;9.40;69.80;7.90;95258.00;;;;4983472;28;20294;-86
2024/01/05 09:29:25;;;;;;;4.67;2.30;;;9.30;69.80;8.00;95252.00;;;;4990822;28;20294;-87
2024/01/05 09:31:52;;;;;;;8.27;2.93;;;9.40;69.80;8.10;95248.00;;;;4988420;28;20206;-86
2024/01/05 09:34:19;;;;;;;3.40;2.53;;;9.50;69.90;8.10;95249.00;;;;4990459;28;20282;-87
2024/01/05 09:36:48;;;;;;;2.53;2.30;;;9.50;69.80;8.20;95255.00;;;;4982178;28;20204;-85
2024/01/05 09:39:15;;;;;;;3.07;2.53;;;9.60;69.50;8.30;95249.00;;;;4982644;28;20223;-87
2024/01/05 09:41:43;;;;;;;3.23;2.80;;;9.60;69.30;8.30;95248.00;;;;4981342;28;20258;-85
2024/01/05 09:44:13;;;;;;;2.93;2.63;;;9.70;69.30;8.40;95246.00;;;;4985120;28;20286;-87
2024/01/05 09:46:42;;;;;;;6.37;2.90;;;9.80;69.10;8.50;95248.00;;;;4981852;28;20224;-85
2024/01/05 09:49:10;;;;;;;9.40;4.20;;;9.80;69.20;8.60;95241.00;;;;4970716;28;20228;-87
2024/01/05 09:51:40;;;;;;;4.20;3.80;;;9.90;69.20;8.60;95241.00;;;;4977360;28;20290;-87
2024/01/05 09:54:09;;;;;;;12.87;3.37;;;9.90;69.10;8.70;95244.00;;;;4984340;28;20188;-87
2024/01/05 09:56:39;;;;;;;17.60;3.37;;;10.00;68.80;8.70;95243.00;;;;4983012;28;20243;-87
2024/01/05 09:59:09;;;;;;;3.73;2.07;;;10.00;68.80;8.80;95248.00;;;;4984878;28;20231;-87
2024/01/05 10:01:38;;;;;;;10.90;2.00;;;10.10;68.70;8.90;95245.00;;;;4981340;28;20222;-87
2024/01/05 10:04:08;;;;;;;10.80;2.27;;;10.20;68.40;8.90;95239.00;;;;4981701;28;20211;-86
2024/01/05 10:06:36;;;;;;;10.67;2.37;;;10.20;68.20;8.90;95238.00;;;;4988155;28;20253;-88
2024/01/05 10:09:05;;;;;;;2.10;1.90;;;10.30;68.30;8.90;95231.00;;;;4978690;28;20303;-86
2024/01/05 10:11:36;;;;;;;2.83;1.83;;;10.30;68.20;9.00;95236.00;;;;4977638;28;20299;-86
2024/01/05 10:14:06;;;;;;;2.00;1.30;;;10.40;67.90;9.00;95226.00;;;;4983247;28;20211;-85
2024/01/05 10:16:37;;;;;;;2.63;1.70;;;10.40;67.60;9.00;95222.00;;;;4989032;28;20202;-86
2024/01/05 10:19:12;;;;;;;2.77;2.10;;;10.50;67.10;9.00;95215.00;;;;4983010;28;20254;-88
2024/01/05 10:21:40;;;;;;;2.07;1.80;;;10.50;66.40;9.00;95216.00;;;;4990142;28;20229;-87
2024/01/05 10:24:16;;;;;;;2.00;1.77;;;10.60;66.40;9.00;95212.00;;;;4983261;28;20685;-89
2024/01/05 10:26:45;;;;;;;3.60;2.37;;;10.60;65.80;9.00;95211.00;;;;4997247;28;20266;-87
2024/01/05 10:29:16;;;;;;;2.17;1.97;;;10.60;65.80;9.00;95210.00;;;;4992463;28;20218;-88
2024/01/05 10:31:43;;;;;;;3.67;1.70;;;10.60;65.70;9.00;95211.00;;;;4994763;28;20209;-87
2024/01/05 10:34:11;;;;;;;7.10;2.63;;;10.60;66.00;9.10;95204.00;;;;4993081;28;20262;-86
2024/01/05 10:36:38;;;;;;;3.57;1.93;;;10.60;66.40;9.10;95206.00;;;;4991874;28;20239;-85
2024/01/05 10:39:08;;;;;;;2.07;1.80;;;10.60;66.80;9.20;95195.00;;;;4977010;28;20211;-86
2024/01/05 10:41:36;;;;;;;2.70;2.00;;;10.70;66.70;9.30;95195.00;;;;4980797;28;20282;-87
2024/01/05 10:44:06;;;;;;;1.70;1.60;;;10.70;66.70;9.30;95185.00;;;;4976234;28;20266;-87
2024/01/05 10:46:35;;;;;;;2.73;2.03;;;10.70;66.70;9.40;95182.00;;;;4989525;28;20210;-87
2024/01/05 10:49:03;;;;;;;2.07;1.70;;;10.80;66.80;9.50;95170.00;;;;4978534;28;20259;-87
2024/01/05 10:51:33;;;;;;;5.63;2.10;;;10.80;66.80;9.50;95168.00;;;;4980797;28;20304;-86
2024/01/05 10:54:02;;;;;;;2.23;2.00;;;10.90;66.70;9.60;95181.00;;;;4984706;28;20265;-87
2024/01/05 10:56:31;;;;;;;8.63;2.17;;;10.90;66.70;9.60;95185.00;;;;4988035;28;20199;-86
2024/01/05 10:58:59;;;;;;;22.97;2.70;;;11.00;66.80;9.60;95193.00;;;;4983731;28;20266;-87
2024/01/05 11:01:32;;;;;;;3.17;1.80;;;11.00;66.90;9.70;95192.00;;;;4987127;28;20337;-87
2024/01/05 11:04:01;;;;;;;11.23;1.80;;;11.00;67.60;9.70;95195.00;;;;4984367;28;20206;-86
2024/01/05 11:06:30;;;;;;;18.90;2.37;;;11.10;66.90;9.70;95184.00;;;;4969387;28;20696;-85
2024/01/05 11:09:12;;;;;;;2.47;1.53;;;11.10;67.00;9.70;95186.00;;;;4976652;28;20215;-87